Time;durP1;ratioP1;P1;durP2;ratioP2;P2;SDS_P1;SDS_P2;PMS_P1;PMS_P2;Temp;Humidity;BMP_temperature;BMP_pressure;BME280_temperature;BME280_humidity;BME280_pressure;Samples;Min_cycle;Max_cycle;Signal;HPM_P1;HPM_P2
2022/09/18 00:01:31;;;;;;;0.47;0.40;;;;;;;23.69;50.00;93818.59;5039136;28;20196;-64
2022/09/18 00:04:00;;;;;;;0.27;0.27;;;;;;;23.28;50.40;93832.91;5047249;28;20675;-65
2022/09/18 00:06:34;;;;;;;0.60;0.60;;;;;;;22.93;50.83;93833.16;5037793;28;20477;-67
2022/09/18 00:09:04;;;;;;;0.30;0.30;;;;;;;23.43;49.73;93837.38;5048969;28;20533;-65
2022/09/18 00:11:38;;;;;;;0.20;0.20;;;;;;;22.68;51.05;93846.09;5041167;28;20440;-67
2022/09/18 00:14:07;;;;;;;0.37;0.37;;;;;;;22.58;51.38;93840.56;5044500;28;20447;-68
2022/09/18 00:16:34;;;;;;;0.10;0.10;;;;;;;22.69;51.04;93861.00;5041831;28;20985;-71
2022/09/18 00:19:02;;;;;;;0.20;0.20;;;;;;;22.88;50.27;93873.53;5042990;28;20442;-69
2022/09/18 00:21:30;;;;;;;0.17;0.17;;;;;;;22.38;50.22;93893.19;5029183;28;20268;-69
2022/09/18 00:23:59;;;;;;;0.50;0.50;;;;;;;21.30;51.11;93907.63;5041342;28;20487;-65
2022/09/18 00:26:27;;;;;;;0.10;0.10;;;;;;;20.98;51.29;93928.16;5035130;28;21011;-66
2022/09/18 00:28:55;;;;;;;0.20;0.20;;;;;;;20.70;51.50;93933.53;5049452;28;20450;-70
2022/09/18 00:31:28;;;;;;;0.10;0.10;;;;;;;20.15;51.46;93952.91;5045980;28;20444;-68
2022/09/18 00:33:59;;;;;;;1.10;0.70;;;;;;;20.11;51.29;93961.88;5029246;28;20528;-66
2022/09/18 00:36:26;;;;;;;0.10;0.10;;;;;;;19.73;51.15;93958.88;5046325;28;20475;-69
2022/09/18 00:38:55;;;;;;;0.10;0.10;;;;;;;19.33;51.13;93965.97;5051797;28;20443;-65
2022/09/18 00:41:31;;;;;;;0.10;0.10;;;;;;;19.55;50.16;93982.25;5052137;28;20445;-63
2022/09/18 00:44:28;;;;;;;0.10;0.10;;;;;;;19.82;49.24;94005.50;5043614;28;21027;-63
2022/09/18 00:47:29;;;;;;;0.10;0.10;;;;;;;19.14;50.42;94012.41;5031894;28;20442;-70
2022/09/18 00:50:05;;;;;;;0.10;0.10;;;;;;;19.05;50.03;94030.31;5046893;28;20449;-68
2022/09/18 00:52:53;;;;;;;0.10;0.10;;;;;;;19.01;49.80;94032.06;5042192;28;20533;-64
2022/09/18 00:55:25;;;;;;;0.10;0.10;;;;;;;18.59;50.11;94043.88;5038052;28;20435;-63
2022/09/18 00:57:56;;;;;;;0.10;0.10;;;;;;;19.08;48.93;94050.13;5040348;28;20442;-65
2022/09/18 01:00:23;;;;;;;0.00;0.00;;;;;;;18.70;48.83;94060.19;5052083;28;20454;-67
2022/09/18 01:02:50;;;;;;;0.00;0.00;;;;;;;17.81;50.12;94085.22;5032666;28;20475;-68
2022/09/18 01:05:47;;;;;;;0.00;0.00;;;;;;;17.90;49.91;94074.59;5032340;28;20939;-66
2022/09/18 01:08:48;;;;;;;0.73;0.70;;;;;;;17.63;50.01;94090.91;5032638;28;20475;-67
2022/09/18 01:11:36;;;;;;;0.03;0.03;;;;;;;17.99;49.78;94115.09;5033799;28;20439;-63
2022/09/18 01:14:24;;;;;;;0.10;0.10;;;;;;;17.98;49.61;94124.13;5046987;28;20545;-71
2022/09/18 01:17:10;;;;;;;0.00;0.00;;;;;;;17.31;50.95;94144.44;5051126;28;20836;-69
2022/09/18 01:20:05;;;;;;;0.20;0.20;;;;;;;16.90;51.85;94153.66;5036715;28;21172;-67
2022/09/18 01:23:13;;;;;;;0.00;0.00;;;;;;;17.51;50.83;94162.34;5052405;28;20545;-66
2022/09/18 01:26:10;;;;;;;0.10;0.10;;;;;;;17.40;51.97;94166.38;5040706;28;20439;-70
2022/09/18 01:28:48;;;;;;;0.10;0.10;;;;;;;16.90;51.75;94185.41;5040044;28;20459;-69
2022/09/18 01:31:26;;;;;;;0.00;0.00;;;;;;;17.33;52.66;94181.97;5042603;28;20490;-64
2022/09/18 01:34:12;;;;;;;0.00;0.00;;;;;;;16.26;53.32;94202.09;5051867;28;20481;-67
2022/09/18 01:36:45;;;;;;;0.00;0.00;;;;;;;16.06;52.63;94210.56;5031474;28;20448;-67
2022/09/18 01:39:24;;;;;;;0.10;0.10;;;;;;;15.93;53.35;94208.84;5042552;28;20977;-64
2022/09/18 01:41:53;;;;;;;0.10;0.10;;;;;;;16.35;52.39;94237.25;5036568;28;20449;-68
2022/09/18 01:44:25;;;;;;;0.00;0.00;;;;;;;16.00;53.18;94239.00;5052338;28;20474;-68
2022/09/18 01:46:57;;;;;;;0.03;0.03;;;;;;;16.26;51.97;94244.38;5036353;28;20996;-67
2022/09/18 01:49:36;;;;;;;0.00;0.00;;;;;;;16.11;53.05;94237.66;5044949;28;20471;-64
2022/09/18 01:52:14;;;;;;;0.10;0.10;;;;;;;15.92;52.92;94265.38;5031715;28;20504;-67
2022/09/18 01:54:47;;;;;;;0.00;0.00;;;;;;;15.86;53.22;94266.59;5030303;28;20436;-69
2022/09/18 01:57:30;;;;;;;0.10;0.10;;;;;;;15.71;53.87;94259.81;5033862;28;21012;-66
2022/09/18 02:00:03;;;;;;;0.07;0.07;;;;;;;15.31;54.67;94281.13;5039595;28;20835;-70
2022/09/18 02:02:53;;;;;;;0.00;0.00;;;;;;;15.99;54.29;94282.38;5045761;28;20974;-69
2022/09/18 02:05:28;;;;;;;0.00;0.00;;;;;;;15.37;53.88;94280.69;5043667;28;20494;-70
2022/09/18 02:08:00;;;;;;;0.00;0.00;;;;;;;15.69;54.35;94293.69;5038118;28;20478;-65
2022/09/18 02:10:32;;;;;;;0.00;0.00;;;;;;;15.53;54.50;94299.66;5049956;28;20821;-65
2022/09/18 02:13:05;;;;;;;0.00;0.00;;;;;;;15.82;53.32;94297.34;5043601;28;20549;-64
2022/09/18 02:15:39;;;;;;;0.10;0.10;;;;;;;16.47;52.36;94306.25;5029787;28;20448;-66
2022/09/18 02:18:25;;;;;;;0.00;0.00;;;;;;;15.56;53.76;94330.72;5049693;28;20450;-66
2022/09/18 02:20:54;;;;;;;0.07;0.07;;;;;;;16.48;52.72;94326.31;5048367;28;20445;-66
2022/09/18 02:23:22;;;;;;;0.07;0.07;;;;;;;16.09;52.32;94328.91;5031339;28;20498;-67
2022/09/18 02:25:57;;;;;;;0.00;0.00;;;;;;;15.82;53.42;94334.34;5029420;28;20435;-68
2022/09/18 02:28:26;;;;;;;0.00;0.00;;;;;;;15.05;54.05;94374.00;5036787;28;20437;-66
2022/09/18 02:30:54;;;;;;;0.37;0.37;;;;;;;14.96;53.89;94375.78;5049511;28;20443;-64
2022/09/18 02:33:23;;;;;;;0.00;0.00;;;;;;;15.19;52.58;94388.00;5049694;28;20487;-71
2022/09/18 02:36:11;;;;;;;0.00;0.00;;;;;;;14.89;52.83;94390.47;5038380;28;20470;-66
2022/09/18 02:38:43;;;;;;;0.00;0.00;;;;;;;15.03;53.30;94412.34;5030814;28;20440;-67
2022/09/18 02:41:36;;;;;;;0.00;0.00;;;;;;;14.89;53.38;94398.38;5028885;28;20444;-66
2022/09/18 02:44:11;;;;;;;0.10;0.10;;;;;;;15.16;52.76;94385.94;5038860;28;20486;-64
2022/09/18 02:46:47;;;;;;;0.00;0.00;;;;;;;15.27;53.91;94392.56;5033093;28;20970;-68
2022/09/18 02:49:20;;;;;;;0.00;0.00;;;;;;;15.31;53.35;94398.03;5029096;28;20949;-65
2022/09/18 02:52:01;;;;;;;0.00;0.00;;;;;;;15.09;52.95;94390.81;5033362;28;20949;-65
2022/09/18 02:54:40;;;;;;;0.00;0.00;;;;;;;15.11;53.59;94404.50;5061593;28;20490;-62
2022/09/18 02:57:15;;;;;;;0.00;0.00;;;;;;;14.43;54.39;94424.00;5036483;28;20440;-65
2022/09/18 02:59:54;;;;;;;0.00;0.00;;;;;;;14.95;53.52;94427.00;5049069;28;20442;-66
2022/09/18 03:02:21;;;;;;;0.00;0.00;;;;;;;14.86;53.31;94423.47;5046342;28;20541;-67
2022/09/18 03:04:50;;;;;;;0.00;0.00;;;;;;;14.73;53.81;94432.16;5038812;28;20538;-68
2022/09/18 03:07:27;;;;;;;0.00;0.00;;;;;;;14.74;52.08;94441.66;5036299;28;20447;-64
2022/09/18 03:09:55;;;;;;;0.00;0.00;;;;;;;14.71;51.10;94444.06;5039828;28;21034;-68
2022/09/18 03:12:22;;;;;;;0.10;0.10;;;;;;;14.86;51.08;94441.94;5043361;28;20496;-67
2022/09/18 03:14:49;;;;;;;0.20;0.20;;;;;;;15.24;49.61;94430.13;5042792;28;20531;-64
2022/09/18 03:17:16;;;;;;;0.10;0.10;;;;;;;15.09;50.16;94438.31;5041768;28;20489;-66
2022/09/18 03:19:44;;;;;;;0.07;0.07;;;;;;;15.06;50.32;94449.47;5028676;28;20531;-68
2022/09/18 03:22:12;;;;;;;0.27;0.27;;;;;;;14.30;50.67;94457.19;5040508;28;20438;-71
2022/09/18 03:24:40;;;;;;;0.10;0.10;;;;;;;14.30;50.91;94446.63;5048339;28;20441;-66
2022/09/18 03:27:09;;;;;;;0.00;0.00;;;;;;;14.07;50.74;94468.56;5021619;28;20955;-67
2022/09/18 03:29:36;;;;;;;0.00;0.00;;;;;;;14.12;50.76;94465.88;5028387;28;20455;-70
2022/09/18 03:32:03;;;;;;;0.00;0.00;;;;;;;14.36;49.96;94482.38;5037476;28;20946;-66
2022/09/18 03:34:39;;;;;;;0.17;0.17;;;;;;;14.28;49.93;94477.75;5048004;28;20577;-66
2022/09/18 03:37:06;;;;;;;0.00;0.00;;;;;;;14.65;51.13;94485.56;5039598;28;20479;-66
2022/09/18 03:39:33;;;;;;;0.00;0.00;;;;;;;14.68;50.65;94485.00;5042466;28;20479;-66
2022/09/18 03:42:05;;;;;;;0.10;0.10;;;;;;;14.58;49.59;94497.59;5028552;28;20932;-65
2022/09/18 03:44:34;;;;;;;0.00;0.00;;;;;;;14.61;49.01;94483.81;5042008;28;20474;-68
2022/09/18 03:47:03;;;;;;;0.10;0.10;;;;;;;14.24;50.61;94479.38;5028352;28;20531;-65
2022/09/18 03:49:30;;;;;;;0.10;0.10;;;;;;;14.50;49.64;94488.47;5042714;28;20447;-68
2022/09/18 03:51:57;;;;;;;0.20;0.20;;;;;;;14.40;50.33;94493.91;5029222;28;20535;-68
2022/09/18 03:54:28;;;;;;;0.53;0.40;;;;;;;15.44;48.12;94479.09;5028245;28;20487;-67
2022/09/18 03:57:18;;;;;;;0.00;0.00;;;;;;;14.84;48.47;94488.13;5034725;28;20505;-68
2022/09/18 04:00:00;;;;;;;0.00;0.00;;;;;;;14.86;48.65;94493.91;5048136;28;20438;-65
2022/09/18 04:02:42;;;;;;;0.10;0.10;;;;;;;14.70;48.51;94503.97;5030025;28;20443;-66
2022/09/18 04:05:29;;;;;;;0.00;0.00;;;;;;;14.62;49.18;94517.78;5036528;28;20450;-67
2022/09/18 04:08:34;;;;;;;0.20;0.20;;;;;;;14.33;49.43;94519.06;5068554;28;20567;-67
2022/09/18 04:11:18;;;;;;;0.00;0.00;;;;;;;14.39;49.22;94526.63;5047592;28;20442;-66
2022/09/18 04:13:45;;;;;;;0.00;0.00;;;;;;;14.88;48.19;94524.22;5044040;28;21098;-69
2022/09/18 04:16:12;;;;;;;0.37;0.37;;;;;;;14.65;48.79;94527.75;5047079;28;20432;-68
2022/09/18 04:18:39;;;;;;;0.00;0.00;;;;;;;14.31;49.28;94537.78;5042731;28;20455;-66
2022/09/18 04:21:07;;;;;;;0.10;0.10;;;;;;;13.83;50.47;94541.63;5034874;28;20790;-65
2022/09/18 04:23:34;;;;;;;0.00;0.00;;;;;;;14.22;49.29;94542.13;5032163;28;20531;-68
2022/09/18 04:26:07;;;;;;;0.10;0.10;;;;;;;13.60;50.37;94553.75;5033148;28;20483;-66
2022/09/18 04:28:41;;;;;;;0.00;0.00;;;;;;;13.89;49.32;94543.91;5053211;28;20511;-67
2022/09/18 04:31:10;;;;;;;0.10;0.10;;;;;;;14.04;49.52;94553.44;5053701;28;20443;-67
2022/09/18 04:33:37;;;;;;;0.93;0.67;;;;;;;13.88;50.74;94560.00;5044077;28;20476;-65
2022/09/18 04:36:06;;;;;;;0.00;0.00;;;;;;;13.71;50.43;94567.56;5032335;28;20503;-72
2022/09/18 04:38:34;;;;;;;0.10;0.10;;;;;;;14.15;51.27;94581.22;5038438;28;20462;-69
2022/09/18 04:41:01;;;;;;;0.10;0.10;;;;;;;14.48;50.83;94587.38;5040077;28;20444;-66
2022/09/18 04:43:29;;;;;;;0.23;0.20;;;;;;;14.42;50.96;94591.13;5037474;28;20473;-68
2022/09/18 04:45:57;;;;;;;0.00;0.00;;;;;;;14.17;51.18;94587.00;5051432;28;20807;-67
2022/09/18 04:48:24;;;;;;;0.00;0.00;;;;;;;14.10;50.75;94583.94;5037428;28;20437;-65
2022/09/18 04:50:52;;;;;;;0.20;0.20;;;;;;;14.06;52.29;94593.47;5042035;28;20882;-66
2022/09/18 04:53:20;;;;;;;0.63;0.20;;;;;;;14.40;50.81;94598.56;5033627;28;20464;-66
2022/09/18 04:55:47;;;;;;;0.00;0.00;;;;;;;14.32;51.85;94594.72;5044725;28;20546;-68
2022/09/18 04:58:16;;;;;;;0.10;0.10;;;;;;;14.91;49.74;94604.59;5042208;28;20526;-66
2022/09/18 05:00:49;;;;;;;0.10;0.10;;;;;;;14.93;50.75;94619.09;5050859;28;20435;-68
2022/09/18 05:03:18;;;;;;;0.00;0.00;;;;;;;15.15;49.83;94618.47;5041140;28;20444;-67
2022/09/18 05:05:47;;;;;;;0.43;0.40;;;;;;;14.54;51.79;94626.56;5033774;28;20887;-68
2022/09/18 05:08:16;;;;;;;0.00;0.00;;;;;;;15.24;49.76;94632.56;5042156;28;20493;-69
2022/09/18 05:10:43;;;;;;;0.10;0.10;;;;;;;15.39;49.17;94640.22;5030990;28;20463;-69
2022/09/18 05:13:10;;;;;;;0.00;0.00;;;;;;;14.36;50.06;94651.03;5031320;28;20550;-69
2022/09/18 05:15:44;;;;;;;0.00;0.00;;;;;;;14.06;51.55;94664.59;5047585;28;20443;-67
2022/09/18 05:18:11;;;;;;;0.10;0.10;;;;;;;14.35;50.80;94670.59;5031294;28;21014;-65
2022/09/18 05:20:38;;;;;;;0.00;0.00;;;;;;;14.38;50.62;94670.00;5030975;28;20444;-68
2022/09/18 05:23:07;;;;;;;0.00;0.00;;;;;;;14.69;49.93;94668.50;5044714;28;20436;-66
2022/09/18 05:25:35;;;;;;;0.00;0.00;;;;;;;14.24;50.92;94669.09;5031044;28;20877;-68
2022/09/18 05:28:02;;;;;;;0.00;0.00;;;;;;;14.34;50.19;94674.28;5046510;28;20523;-69
2022/09/18 05:30:42;;;;;;;0.00;0.00;;;;;;;14.77;49.60;94683.72;5030934;28;20444;-66
2022/09/18 05:33:10;;;;;;;0.77;0.77;;;;;;;14.35;50.02;94675.84;5044655;28;20468;-67
2022/09/18 05:35:39;;;;;;;0.10;0.10;;;;;;;14.35;49.61;94675.84;5030976;28;20470;-67
2022/09/18 05:38:07;;;;;;;0.10;0.10;;;;;;;14.25;49.95;94681.22;5047370;28;20988;-66
2022/09/18 05:40:36;;;;;;;0.10;0.10;;;;;;;13.98;49.31;94675.75;5050652;28;20438;-75
2022/09/18 05:43:04;;;;;;;0.00;0.00;;;;;;;14.23;49.90;94699.19;5037318;28;20893;-66
2022/09/18 05:45:33;;;;;;;0.00;0.00;;;;;;;14.31;49.68;94698.56;5042100;28;20946;-68
2022/09/18 05:48:06;;;;;;;0.20;0.20;;;;;;;13.74;50.36;94696.81;5030390;28;20439;-68
2022/09/18 05:50:35;;;;;;;0.00;0.00;;;;;;;14.01;50.07;94691.00;5031585;28;20810;-67
2022/09/18 05:53:11;;;;;;;0.00;0.00;;;;;;;13.77;49.44;94695.47;5048146;28;20478;-67
2022/09/18 05:55:47;;;;;;;0.30;0.30;;;;;;;14.27;49.59;94689.66;5041677;28;20519;-66
2022/09/18 05:58:16;;;;;;;0.00;0.00;;;;;;;14.24;49.02;94698.09;5038451;28;20832;-68
2022/09/18 06:00:44;;;;;;;0.00;0.00;;;;;;;14.69;48.09;94689.63;5044076;28;20458;-67
2022/09/18 06:03:20;;;;;;;6.53;0.63;;;;;;;15.05;47.72;94689.88;5030387;28;20438;-64
2022/09/18 06:05:51;;;;;;;0.00;0.00;;;;;;;14.57;48.21;94678.72;5045804;28;20443;-67
2022/09/18 06:08:20;;;;;;;0.10;0.10;;;;;;;14.41;48.37;94701.09;5039942;28;20534;-68
2022/09/18 06:10:46;;;;;;;0.00;0.00;;;;;;;14.49;48.30;94700.44;5051440;28;20481;-66
2022/09/18 06:13:16;;;;;;;0.00;0.00;;;;;;;14.36;48.53;94714.31;5041994;28;20444;-68
2022/09/18 06:15:53;;;;;;;1.80;1.27;;;;;;;14.82;47.91;94707.38;5030060;28;20444;-67
2022/09/18 06:18:32;;;;;;;0.13;0.13;;;;;;;15.48;47.03;94685.25;5040961;28;20438;-65
2022/09/18 06:21:01;;;;;;;0.00;0.00;;;;;;;14.60;48.24;94704.50;5039475;28;20458;-67
2022/09/18 06:23:30;;;;;;;0.00;0.00;;;;;;;15.15;47.03;94721.38;5039187;28;20439;-66
2022/09/18 06:26:06;;;;;;;0.00;0.00;;;;;;;14.67;48.61;94726.03;5047764;28;20522;-64
2022/09/18 06:28:39;;;;;;;0.40;0.40;;;;;;;14.65;47.79;94728.16;5039097;28;20441;-68
2022/09/18 06:31:08;;;;;;;0.00;0.00;;;;;;;14.64;47.80;94734.53;5035656;28;20529;-68
2022/09/18 06:33:48;;;;;;;0.10;0.10;;;;;;;14.90;46.92;94734.97;5050171;28;20577;-67
2022/09/18 06:36:15;;;;;;;3.20;0.20;;;;;;;14.89;47.03;94734.16;5048226;28;20900;-69
2022/09/18 06:38:58;;;;;;;0.00;0.00;;;;;;;15.13;45.77;94745.44;5039396;28;20432;-69
2022/09/18 06:41:25;;;;;;;0.03;0.03;;;;;;;15.13;46.41;94750.72;5047634;28;20808;-67
2022/09/18 06:43:53;;;;;;;0.00;0.00;;;;;;;14.67;47.00;94768.22;5040383;28;20475;-65
2022/09/18 06:46:43;;;;;;;0.00;0.00;;;;;;;14.45;47.09;94775.13;5046611;28;20435;-65
2022/09/18 06:49:24;;;;;;;0.00;0.00;;;;;;;14.14;47.10;94756.97;5037065;28;21021;-65
2022/09/18 06:51:51;;;;;;;0.00;0.00;;;;;;;15.50;45.62;94771.03;5028858;28;20463;-69
2022/09/18 06:54:18;;;;;;;0.10;0.10;;;;;;;15.25;45.75;94763.47;5029351;28;20634;-72
2022/09/18 06:56:46;;;;;;;0.07;0.07;;;;;;;16.03;44.80;94766.97;5034180;28;20444;-69
2022/09/18 06:59:15;;;;;;;0.00;0.00;;;;;;;15.65;45.73;94772.63;5028790;28;20468;-67
2022/09/18 07:01:42;;;;;;;0.00;0.00;;;;;;;15.68;45.00;94764.91;5028979;28;20448;-67
2022/09/18 07:04:17;;;;;;;0.00;0.00;;;;;;;15.88;45.12;94767.22;5047053;28;20442;-65
2022/09/18 07:06:45;;;;;;;0.20;0.20;;;;;;;15.59;45.38;94771.94;5038576;28;20506;-66
2022/09/18 07:09:13;;;;;;;0.00;0.00;;;;;;;16.10;44.78;94774.50;5043703;28;20950;-68
2022/09/18 07:12:06;;;;;;;0.00;0.00;;;;;;;16.02;44.21;94780.47;5030529;28;20447;-68
2022/09/18 07:14:46;;;;;;;0.10;0.10;;;;;;;15.29;44.76;94776.88;5035245;28;20486;-66
2022/09/18 07:17:14;;;;;;;0.00;0.00;;;;;;;15.50;45.29;94775.53;5035632;28;20440;-67
2022/09/18 07:19:49;;;;;;;0.10;0.10;;;;;;;15.62;44.77;94783.78;5034701;28;20438;-68
2022/09/18 07:22:21;;;;;;;0.20;0.20;;;;;;;15.84;43.80;94781.28;5035266;28;20475;-68
2022/09/18 07:24:48;;;;;;;0.37;0.37;;;;;;;16.15;43.46;94777.81;5058862;28;20436;-66
2022/09/18 07:27:15;;;;;;;0.00;0.00;;;;;;;16.02;43.36;94777.81;5028680;28;20440;-70
2022/09/18 07:29:42;;;;;;;0.37;0.30;;;;;;;15.99;42.67;94773.91;5028241;28;20947;-65
2022/09/18 07:32:13;;;;;;;0.23;0.23;;;;;;;16.18;43.30;94760.59;5038974;28;20549;-68
2022/09/18 07:34:42;;;;;;;0.00;0.00;;;;;;;16.32;41.14;94779.09;5034313;28;20471;-70
2022/09/18 07:37:12;;;;;;;0.00;0.00;;;;;;;16.04;41.75;94775.66;5039103;28;20831;-68
2022/09/18 07:39:45;;;;;;;0.10;0.10;;;;;;;16.64;40.82;94774.53;5044248;28;20462;-71
2022/09/18 07:42:47;;;;;;;0.10;0.10;;;;;;;16.69;40.95;94771.78;5036175;28;20487;-66
2022/09/18 07:45:14;;;;;;;0.00;0.00;;;;;;;17.19;40.07;94770.69;5033878;28;20887;-70
2022/09/18 07:47:41;;;;;;;0.00;0.00;;;;;;;16.38;41.47;94781.38;5036782;28;20436;-69
2022/09/18 07:50:14;;;;;;;0.00;0.00;;;;;;;16.69;40.74;94787.66;5030151;28;20444;-65
2022/09/18 07:52:50;;;;;;;1.97;0.37;;;;;;;16.38;41.01;94777.94;5028273;28;20515;-71
2022/09/18 07:55:21;;;;;;;0.20;0.20;;;;;;;16.08;41.48;94771.34;5032877;28;20478;-66
2022/09/18 07:58:03;;;;;;;0.20;0.20;;;;;;;16.32;41.69;94758.75;5028535;28;20436;-70
2022/09/18 08:00:50;;;;;;;0.00;0.00;;;;;;;16.75;40.82;94753.97;5029311;28;20985;-73
2022/09/18 08:03:20;;;;;;;0.20;0.20;;;;;;;16.44;40.92;94759.03;5038882;28;20457;-65
2022/09/18 08:06:16;;;;;;;0.00;0.00;;;;;;;16.13;41.78;94764.13;5050708;28;20462;-69
2022/09/18 08:08:55;;;;;;;0.00;0.00;;;;;;;16.05;42.45;94750.81;5047081;28;20879;-70
2022/09/18 08:12:09;;;;;;;0.20;0.20;;;;;;;15.84;41.62;94749.59;5045965;28;20514;-66
2022/09/18 08:14:56;;;;;;;0.00;0.00;;;;;;;15.71;41.84;94759.06;5040998;28;20856;-69
2022/09/18 08:17:32;;;;;;;0.20;0.20;;;;;;;15.33;42.81;94775.25;5029150;28;20458;-65
2022/09/18 08:20:03;;;;;;;0.00;0.00;;;;;;;15.35;42.60;94773.88;5029369;28;20443;-68
2022/09/18 08:22:43;;;;;;;0.20;0.20;;;;;;;15.35;42.82;94767.81;5027839;28;20451;-67
2022/09/18 08:25:12;;;;;;;0.30;0.30;;;;;;;15.49;42.03;94784.53;5027659;28;20475;-68
2022/09/18 08:27:42;;;;;;;0.10;0.10;;;;;;;15.61;41.12;94782.22;5027808;28;20930;-67
2022/09/18 08:30:12;;;;;;;0.00;0.00;;;;;;;16.39;40.50;94772.34;5027596;28;20444;-64
2022/09/18 08:32:41;;;;;;;0.00;0.00;;;;;;;17.25;40.15;94784.59;5041508;28;20439;-69
2022/09/18 08:35:09;;;;;;;0.10;0.10;;;;;;;17.01;39.35;94790.16;5027686;28;20578;-66
2022/09/18 08:37:37;;;;;;;0.93;0.33;;;;;;;17.28;39.23;94772.63;5035092;28;20448;-68
2022/09/18 08:41:07;;;;;;;0.00;0.00;;;;;;;18.14;39.85;94785.38;5047583;28;20461;-66
2022/09/18 08:44:09;;;;;;;0.10;0.10;;;;;;;17.99;38.68;94781.25;5041876;28;20521;-65
2022/09/18 08:47:00;;;;;;;0.00;0.00;;;;;;;18.64;38.23;94778.75;5027733;28;20538;-67
2022/09/18 08:49:42;;;;;;;0.00;0.00;;;;;;;18.87;36.44;94782.88;5037317;28;20439;-67
2022/09/18 08:52:16;;;;;;;0.20;0.20;;;;;;;18.78;37.09;94800.66;5027445;28;20440;-68
2022/09/18 08:54:46;;;;;;;0.00;0.00;;;;;;;19.40;37.61;94795.13;5041651;28;20504;-67
2022/09/18 08:57:36;;;;;;;0.10;0.10;;;;;;;18.49;37.30;94803.06;5034701;28;20502;-67
2022/09/18 09:00:40;;;;;;;0.33;0.33;;;;;;;18.21;38.74;94812.25;5052051;28;20436;-63
2022/09/18 09:03:35;;;;;;;0.10;0.10;;;;;;;18.83;37.31;94811.13;5041597;28;20442;-65
2022/09/18 09:06:14;;;;;;;0.00;0.00;;;;;;;18.34;37.34;94808.72;5050672;28;20446;-72
2022/09/18 09:08:56;;;;;;;0.30;0.30;;;;;;;18.81;38.44;94818.59;5051490;28;20554;-67
2022/09/18 09:11:30;;;;;;;1.40;0.73;;;;;;;18.36;37.20;94819.81;5030837;28;20827;-67
2022/09/18 09:14:03;;;;;;;4.73;1.03;;;;;;;17.68;37.27;94819.41;5046493;28;20496;-69
2022/09/18 09:16:48;;;;;;;0.27;0.27;;;;;;;18.39;36.47;94798.00;5038467;28;20884;-72
2022/09/18 09:19:30;;;;;;;0.00;0.00;;;;;;;19.15;35.88;94805.41;5049116;28;20496;-68
2022/09/18 09:22:17;;;;;;;0.00;0.00;;;;;;;18.56;36.03;94806.03;5040966;28;20481;-66
2022/09/18 09:25:03;;;;;;;0.10;0.10;;;;;;;18.30;36.06;94831.66;5047169;28;20490;-69
2022/09/18 09:27:48;;;;;;;0.33;0.33;;;;;;;18.81;35.53;94831.88;5046157;28;20450;-67
2022/09/18 09:30:34;;;;;;;0.10;0.10;;;;;;;18.98;35.82;94847.88;5052047;28;21022;-69
2022/09/18 09:33:39;;;;;;;0.30;0.30;;;;;;;18.55;36.04;94846.16;5039971;28;21043;-72
2022/09/18 09:36:26;;;;;;;2.43;1.03;;;;;;;17.51;37.19;94851.06;5030227;28;20492;-68
2022/09/18 09:39:12;;;;;;;0.00;0.00;;;;;;;16.84;38.42;94858.78;5030650;28;20468;-63
2022/09/18 09:41:56;;;;;;;0.00;0.00;;;;;;;17.13;38.36;94874.38;5030496;28;20487;-69
2022/09/18 09:44:56;;;;;;;0.00;0.00;;;;;;;17.20;37.77;94864.16;5042664;28;20458;-68
2022/09/18 09:47:40;;;;;;;0.00;0.00;;;;;;;18.25;37.22;94871.56;5039663;28;21184;-68
2022/09/18 09:50:08;;;;;;;0.10;0.10;;;;;;;18.23;36.78;94873.72;5031944;28;20444;-72
2022/09/18 09:52:38;;;;;;;0.10;0.10;;;;;;;18.13;36.18;94869.47;5030257;28;20582;-68
2022/09/18 09:55:12;;;;;;;0.30;0.30;;;;;;;19.60;36.07;94852.97;5049311;28;20486;-69
2022/09/18 09:57:49;;;;;;;0.20;0.20;;;;;;;19.82;34.71;94864.25;5036207;28;20820;-68
2022/09/18 10:00:19;;;;;;;0.10;0.10;;;;;;;19.30;35.99;94877.78;5036795;28;20950;-68
2022/09/18 10:02:59;;;;;;;0.73;0.73;;;;;;;19.36;35.26;94873.94;5030489;28;20490;-67
2022/09/18 10:05:38;;;;;;;0.10;0.10;;;;;;;18.26;36.19;94889.06;5044217;28;20542;-65
2022/09/18 10:08:09;;;;;;;0.50;0.30;;;;;;;18.52;36.00;94902.50;5046759;28;20538;-70
2022/09/18 10:10:44;;;;;;;0.10;0.10;;;;;;;17.91;36.45;94887.25;5035311;28;20440;-68
2022/09/18 10:13:17;;;;;;;0.23;0.23;;;;;;;18.41;36.13;94894.00;5049944;28;20450;-66
2022/09/18 10:15:47;;;;;;;0.07;0.07;;;;;;;18.07;36.66;94877.84;5045953;28;20506;-69
2022/09/18 10:18:41;;;;;;;0.10;0.10;;;;;;;18.81;36.75;94890.28;5030058;28;20440;-72
2022/09/18 10:21:12;;;;;;;0.20;0.20;;;;;;;18.74;37.13;94884.63;5027140;28;20523;-72
2022/09/18 10:24:04;;;;;;;0.07;0.07;;;;;;;18.36;37.54;94903.91;5029996;28;20873;-67
2022/09/18 10:27:14;;;;;;;0.10;0.10;;;;;;;17.66;38.32;94907.19;5029853;28;20847;-67
2022/09/18 10:29:42;;;;;;;0.20;0.20;;;;;;;18.17;38.02;94904.88;5029821;28;20851;-69
2022/09/18 10:32:32;;;;;;;0.20;0.20;;;;;;;18.38;38.24;94910.50;5029900;28;20543;-68
2022/09/18 10:35:27;;;;;;;0.30;0.30;;;;;;;18.20;37.94;94906.16;5034921;28;20569;-69
2022/09/18 10:37:56;;;;;;;0.10;0.10;;;;;;;18.36;36.91;94910.00;5049174;28;20451;-70
2022/09/18 10:40:38;;;;;;;0.20;0.20;;;;;;;18.62;37.51;94912.84;5040941;28;20468;-69
2022/09/18 10:43:16;;;;;;;0.00;0.00;;;;;;;18.18;37.27;94908.34;5045032;28;20505;-69
2022/09/18 10:45:53;;;;;;;0.10;0.10;;;;;;;17.99;36.40;94905.84;5049444;28;20956;-68
2022/09/18 10:48:32;;;;;;;0.00;0.00;;;;;;;18.50;35.89;94909.97;5045110;28;20889;-66
2022/09/18 10:51:01;;;;;;;0.43;0.40;;;;;;;18.80;35.36;94904.66;5032520;28;20506;-65
2022/09/18 10:53:36;;;;;;;0.57;0.57;;;;;;;18.46;35.28;94899.19;5044808;28;20451;-67
2022/09/18 10:56:18;;;;;;;0.10;0.10;;;;;;;18.54;35.92;94922.31;5029187;28;20483;-68
2022/09/18 10:58:49;;;;;;;0.07;0.07;;;;;;;18.44;34.99;94901.34;5035216;28;20435;-67
2022/09/18 11:01:16;;;;;;;0.20;0.20;;;;;;;19.45;34.63;94911.94;5048718;28;20882;-69
2022/09/18 11:03:59;;;;;;;0.10;0.10;;;;;;;18.24;35.70;94907.13;5034586;28;20448;-66
2022/09/18 11:06:33;;;;;;;0.00;0.00;;;;;;;17.99;36.62;94921.00;5028830;28;20436;-66
2022/09/18 11:09:39;;;;;;;0.33;0.33;;;;;;;18.16;36.05;94910.50;5041787;28;20442;-66
2022/09/18 11:12:26;;;;;;;0.00;0.00;;;;;;;18.46;35.91;94920.41;5048748;28;20454;-72
2022/09/18 11:15:06;;;;;;;0.10;0.10;;;;;;;19.08;36.20;94906.03;5041514;28;20946;-72
2022/09/18 11:17:45;;;;;;;0.30;0.30;;;;;;;18.75;34.93;94915.41;5045145;28;20467;-66
2022/09/18 11:20:41;;;;;;;1.13;0.37;;;;;;;18.58;35.43;94920.63;5029082;28;20471;-65
2022/09/18 11:23:35;;;;;;;0.00;0.00;;;;;;;19.23;35.30;94921.53;5032732;28;20514;-68
2022/09/18 11:26:18;;;;;;;0.20;0.20;;;;;;;19.20;35.21;94908.88;5042918;28;20450;-70
2022/09/18 11:29:03;;;;;;;0.10;0.10;;;;;;;18.56;34.69;94930.75;5028799;28;20439;-65
2022/09/18 11:32:04;;;;;;;0.10;0.10;;;;;;;18.56;35.65;94917.50;5043630;28;20509;-70
2022/09/18 11:34:43;;;;;;;0.07;0.07;;;;;;;18.46;35.08;94923.06;5031688;28;20538;-66
2022/09/18 11:37:13;;;;;;;0.07;0.07;;;;;;;18.77;34.95;94913.25;5039415;28;20440;-67
2022/09/18 11:39:50;;;;;;;4.80;2.47;;;;;;;18.82;34.21;94907.78;5042422;28;20451;-69
2022/09/18 11:42:17;;;;;;;0.23;0.17;;;;;;;18.39;34.77;94912.06;5029558;28;20450;-64
2022/09/18 11:44:46;;;;;;;0.30;0.30;;;;;;;19.04;34.03;94905.06;5029580;28;20555;-67
2022/09/18 11:47:35;;;;;;;0.47;0.30;;;;;;;19.20;33.71;94903.56;5040405;28;20816;-71
2022/09/18 11:50:13;;;;;;;0.10;0.10;;;;;;;19.66;33.47;94904.91;5043291;28;20452;-70
2022/09/18 11:52:48;;;;;;;0.10;0.10;;;;;;;19.37;33.97;94918.00;5028303;28;20440;-72
2022/09/18 11:55:30;;;;;;;0.00;0.00;;;;;;;19.90;33.66;94916.66;5028120;28;21019;-71
2022/09/18 11:58:04;;;;;;;0.00;0.00;;;;;;;20.59;33.90;94912.06;5038340;28;20443;-64
2022/09/18 12:00:39;;;;;;;0.40;0.37;;;;;;;19.52;33.75;94920.22;5035971;28;21029;-69
2022/09/18 12:03:33;;;;;;;0.20;0.20;;;;;;;19.49;33.42;94920.84;5044176;28;20443;-66
2022/09/18 12:06:09;;;;;;;0.20;0.20;;;;;;;20.23;33.10;94919.66;5032520;28;20436;-64
2022/09/18 12:08:58;;;;;;;0.00;0.00;;;;;;;19.93;32.17;94926.69;5030218;28;20539;-67
2022/09/18 12:11:36;;;;;;;0.10;0.10;;;;;;;19.56;32.30;94929.16;5032341;28;20543;-68
2022/09/18 12:14:19;;;;;;;0.20;0.20;;;;;;;19.74;33.25;94928.06;5042890;28;20629;-70
2022/09/18 12:17:38;;;;;;;0.43;0.43;;;;;;;19.12;34.16;94927.44;5047447;28;20544;-66